Latest Coastal Weather Observations for Hillarys Point Boat Harbour

IDW60701

Issued at 4:52 am WST Monday 20 April 2015 (issued every 10 minutes, with the page automatically refreshed every 10 minutes)

About coastal observations | Map of coastal stations | Coastal observations for WA | Marine services | Other Formats
Station Details ID: 009265 Name: HILLARYS BOAT HARBOUR NTC AWS Lat: -31.83 Lon: 115.74 Height: 0.0 m
Data from the previous 72 hours. | See also: Recent months for locations in Western Australia
Date/Time
WST
Temp

°C
Wind Pressure Rain
since 9am
mm
Weather Cloud Vis
km
Sea
Height
m
Swell
Dir
 
Speed
knots
Gust
knots
hPa Trend Height
m
Period
s
Dir
20/04:30am 18.0 ENE 7 11 1024.1 - - - - - - - - -
20/04:00am 18.2 ENE 7 11 1023.9 - - - - - - - - -
20/03:30am 18.5 ENE 7 9 1024.1 - - - - - - - - -
20/03:00am 18.6 ENE 7 10 1024.1 - - - - - - - - -
20/02:30am 18.9 ENE 7 11 1024.2 - - - - - - - - -
20/02:00am 18.9 ENE 6 10 1024.4 - - - - - - - - -
20/01:30am 18.7 ENE 5 7 1024.5 - - - - - - - - -
20/01:00am 19.1 E 4 7 1024.5 - - - - - - - - -
20/12:30am 19.5 ENE 4 7 1024.5 - - - - - - - - -
20/12:00am 19.7 ENE 4 7 1024.5 - - - - - - - - -
 
Date/Time
WST
Temp

°C
Wind Pressure Rain
since 9am
mm
Weather Cloud Vis
km
Sea
Height
m
Swell
Dir
 
Speed
knots
Gust
knots
hPa Trend Height
m
Period
s
Dir
19/11:30pm 20.0 ENE 5 8 1024.4 - - - - - - - - -
19/11:00pm 20.1 ENE 6 9 1024.6 - - - - - - - - -
19/10:30pm 19.9 E 4 6 1024.8 - - - - - - - - -
19/10:00pm 20.4 E 2 4 1025.0 - - - - - - - - -
19/09:30pm 21.2 E 2 4 1025.0 - - - - - - - - -
19/09:00pm 21.8 E 2 5 1024.8 - - - - - - - - -
19/08:30pm 22.1 E 2 4 1024.6 - - - - - - - - -
19/08:00pm 22.7 E 2 4 1024.5 - - - - - - - - -
19/07:30pm 23.3 E 2 4 1024.3 - - - - - - - - -
19/07:00pm 24.0 E 3 6 1024.1 - - - - - - - - -
19/06:30pm 24.4 E 3 6 1023.7 - - - - - - - - -
19/06:00pm 25.1 E 3 5 1023.2 - - - - - - - - -
19/05:30pm 25.9 ENE 3 6 1022.8 - - - - - - - - -
19/05:00pm 26.7 ENE 7 10 1022.7 - - - - - - - - -
19/04:30pm 27.2 ENE 7 12 1022.5 - - - - - - - - -
19/04:00pm 27.2 ENE 6 12 1022.5 - - - - - - - - -
19/03:30pm 26.8 ENE 7 12 1022.7 - - - - - - - - -
19/03:00pm 26.8 ENE 7 13 1022.8 - - - - - - - - -
19/02:30pm 26.6 ENE 7 13 1022.9 - - - - - - - - -
19/02:00pm 26.9 ENE 8 13 1022.9 - - - - - - - - -
19/01:30pm 26.1 ENE 7 12 1023.2 - - - - - - - - -
19/01:00pm 25.6 ENE 9 16 1023.6 - - - - - - - - -
19/12:30pm 24.9 ENE 8 14 1024.2 - - - - - - - - -
19/12:00pm 24.3 ENE 8 15 1024.8 - - - - - - - - -
19/11:30am 23.3 ENE 7 15 1025.2 - - - - - - - - -
19/11:00am 22.9 ENE 10 17 1025.5 - - - - - - - - -
19/10:30am 22.2 ENE 13 20 1025.6 - - - - - - - - -
19/10:00am 21.5 ENE 12 20 1025.9 - - - - - - - - -
19/09:30am 20.9 ENE 12 22 1025.8 - - - - - - - - -
19/09:00am 19.4 ENE 13 19 1025.7 - - - - - - - - -
19/08:30am 18.4 ENE 13 20 1025.6 - - - - - - - - -
19/08:00am 17.7 ENE 11 18 1025.3 - - - - - - - - -
19/07:30am 16.8 ENE 9 15 1024.9 - - - - - - - - -
19/07:00am 16.1 ENE 8 13 1024.6 - - - - - - - - -
19/06:30am 16.2 ENE 8 12 1024.3 - - - - - - - - -
19/06:00am 16.4 ENE 8 12 1024.0 - - - - - - - - -
19/05:30am 16.6 ENE 8 13 1023.7 - - - - - - - - -
19/05:00am 16.6 ENE 6 10 1023.5 - - - - - - - - -
19/04:30am 16.8 ENE 7 11 1023.2 - - - - - - - - -
19/04:00am 17.1 ENE 8 12 1023.0 - - - - - - - - -
19/03:30am 17.4 ENE 8 12 1022.9 - - - - - - - - -
19/03:00am 17.6 ENE 8 13 1022.8 - - - - - - - - -
19/02:30am 17.8 E 7 12 1023.0 - - - - - - - - -
19/02:00am 18.0 ENE 7 11 1023.0 - - - - - - - - -
19/01:30am 18.2 E 6 12 1023.1 - - - - - - - - -
19/01:00am 18.4 E 6 10 1023.1 - - - - - - - - -
19/12:30am 18.8 E 6 10 1023.0 - - - - - - - - -
19/12:00am 19.2 E 6 11 1022.9 - - - - - - - - -
 
Date/Time
WST
Temp

°C
Wind Pressure Rain
since 9am
mm
Weather Cloud Vis
km
Sea
Height
m
Swell
Dir
 
Speed
knots
Gust
knots
hPa Trend Height
m
Period
s
Dir
18/11:30pm 19.7 E 5 10 1023.0 - - - - - - - - -
18/11:00pm 20.0 E 4 8 1023.2 - - - - - - - - -
18/10:30pm 19.7 E 2 6 1023.4 - - - - - - - - -
18/10:00pm 19.8 E 2 4 1023.3 - - - - - - - - -
18/09:30pm 20.1 ESE 1 3 1023.4 - - - - - - - - -
18/09:00pm 20.5 E 1 3 1023.2 - - - - - - - - -
18/08:30pm 20.6 CALM 0 2 1022.9 - - - - - - - - -
18/08:00pm 20.3 CALM 0 1 1022.6 - - - - - - - - -
18/07:30pm 20.0 CALM 0 1 1022.4 - - - - - - - - -
18/07:00pm 20.6 SSE 3 8 1022.1 - - - - - - - - -
18/06:30pm 20.7 S 2 6 1021.7 - - - - - - - - -
18/06:00pm 20.9 SSW 2 6 1021.4 - - - - - - - - -
18/05:30pm 21.3 S 3 7 1021.1 - - - - - - - - -
18/05:00pm 21.8 SSW 3 6 1020.9 - - - - - - - - -
18/04:55pm 21.7 SSW 4 9 1020.9 - - - - - - - - -
18/04:30pm 26.7 E 4 9 1020.9 - - - - - - - - -
18/04:00pm 26.8 ENE 5 11 1020.9 - - - - - - - - -
18/03:30pm 26.7 E 4 9 1020.9 - - - - - - - - -
18/03:00pm 26.1 ENE 6 12 1021.0 - - - - - - - - -
18/02:30pm 26.1 E 3 8 1021.0 - - - - - - - - -
18/02:00pm 25.6 E 4 10 1021.3 - - - - - - - - -
18/01:30pm 25.0 E 5 11 1021.5 - - - - - - - - -
18/01:00pm 24.6 ENE 6 10 1021.7 - - - - - - - - -
18/12:30pm 24.5 ENE 7 11 1022.3 - - - - - - - - -
18/12:00pm 23.6 ENE 8 15 1022.6 - - - - - - - - -
18/11:30am 23.1 E 8 13 1022.9 - - - - - - - - -
18/11:00am 22.0 ENE 10 15 1023.1 - - - - - - - - -
18/10:30am 21.3 ENE 10 15 1023.4 - - - - - - - - -
18/10:00am 20.5 ENE 9 15 1023.6 - - - - - - - - -
18/09:30am 19.5 ENE 9 15 1023.8 - - - - - - - - -
18/09:00am 18.4 ENE 7 12 1023.8 - - - - - - - - -
18/08:30am 17.3 E 8 13 1023.7 - - - - - - - - -
18/08:00am 16.4 ENE 10 16 1023.3 - - - - - - - - -
18/07:30am 15.4 ENE 9 15 1022.9 - - - - - - - - -
18/07:00am 15.0 E 8 13 1022.5 - - - - - - - - -
18/06:30am 15.0 E 6 14 1022.4 - - - - - - - - -
18/06:00am 15.2 E 4 10 1021.9 - - - - - - - - -
18/05:30am 15.2 E 3 8 1021.9 - - - - - - - - -
18/05:00am 14.7 ESE 2 6 1021.8 - - - - - - - - -
18/04:30am 13.9 ESE 1 3 1021.7 - - - - - - - - -
18/04:00am 14.1 CALM 0 2 1021.8 - - - - - - - - -
18/03:30am 14.1 ESE 1 2 1021.8 - - - - - - - - -
18/03:00am 15.5 SSE 3 6 1021.9 - - - - - - - - -
18/02:30am 15.8 SSE 4 7 1022.0 - - - - - - - - -
18/02:00am 16.1 SSE 3 7 1022.0 - - - - - - - - -
18/01:30am 16.5 SSE 3 6 1022.0 - - - - - - - - -
18/01:00am 16.7 SSE 4 7 1021.9 - - - - - - - - -
18/12:30am 16.8 SSE 3 7 1021.8 - - - - - - - - -
18/12:00am 16.8 SE 2 5 1021.9 - - - - - - - - -
 
Date/Time
WST
Temp

°C
Wind Pressure Rain
since 9am
mm
Weather Cloud Vis
km
Sea
Height
m
Swell
Dir
 
Speed
knots
Gust
knots
hPa Trend Height
m
Period
s
Dir
17/11:30pm 17.2 SSE 3 5 1022.0 - - - - - - - - -
17/11:00pm 17.3 SSE 4 9 1022.2 - - - - - - - - -
17/10:30pm 17.4 SE 3 9 1022.3 - - - - - - - - -
17/10:00pm 17.8 SSE 4 8 1022.3 - - - - - - - - -
17/09:30pm 18.1 SSE 4 9 1022.5 - - - - - - - - -
17/09:00pm 18.5 SSE 5 9 1022.5 - - - - - - - - -
17/08:30pm 19.0 SSE 3 9 1022.4 - - - - - - - - -
17/08:00pm 19.5 S 4 12 1022.2 - - - - - - - - -
17/07:30pm 19.7 SSW 5 13 1022.0 - - - - - - - - -
17/07:00pm 19.7 SSW 6 12 1021.8 - - - - - - - - -
17/06:30pm 19.9 SSW 4 10 1021.5 - - - - - - - - -
17/06:00pm 19.7 SSW 5 11 1021.1 - - - - - - - - -
17/05:30pm 19.7 SSW 4 9 1021.0 - - - - - - - - -
17/05:00pm 19.9 SSW 5 11 1020.9 - - - - - - - - -
17/04:30pm 20.1 SSW 5 12 1021.0 - - - - - - - - -
17/04:00pm 20.1 SSW 7 12 1021.1 - - - - - - - - -
17/03:30pm 20.1 SSW 7 12 1021.3 - - - - - - - - -
17/03:00pm 20.1 SSW 7 12 1021.3 - - - - - - - - -
17/02:30pm 20.0 SSW 7 12 1021.4 - - - - - - - - -
17/02:00pm 20.0 SSW 6 12 1021.6 - - - - - - - - -
17/01:30pm 19.9 SSW 6 11 1021.8 - - - - - - - - -
17/01:00pm 19.8 SSW 5 9 1022.3 - - - - - - - - -
17/12:30pm 20.0 SW 5 8 1023.0 - - - - - - - - -
17/12:00pm 19.6 SW 5 7 1023.7 - - - - - - - - -
17/11:30am 19.3 SW 5 7 1024.2 - - - - - - - - -
17/11:00am 18.7 SW 5 8 1024.7 - - - - - - - - -
17/10:30am 18.0 WSW 5 6 1025.2 - - - - - - - - -
17/10:00am 18.0 WSW 3 5 1025.3 - - - - - - - - -
17/09:30am 18.6 NNE 1 4 1025.5 - - - - - - - - -
17/09:00am 17.8 ENE 1 3 1025.7 - - - - - - - - -
17/08:30am 16.5 WSW 1 2 1025.6 - - - - - - - - -
17/08:00am 15.4 ENE 6 10 1024.9 - - - - - - - - -
17/07:30am 14.8 ENE 8 12 1024.6 - - - - - - - - -
17/07:00am 14.5 ENE 8 11 1024.5 - - - - - - - - -
17/06:30am 14.7 ENE 9 15 1024.5 - - - - - - - - -
17/06:00am 14.2 ENE 9 13 1024.5 - - - - - - - - -
17/05:30am 13.8 ENE 8 11 1024.6 - - - - - - - - -
17/05:00am 14.0 ENE 6 9 1024.6 - - - - - - - - -

Other Formats:

Comma delimited format used in spreadsheet applications
http://www.bom.gov.au/fwo/IDW60701/IDW60701.95605.axf

JavaScript Object Notation format (JSON) in row-major order
http://www.bom.gov.au/fwo/IDW60701/IDW60701.95605.json